STAZIONE METEO DI BARCELLONA P.G. CENTRO
Dati campionati ogni minuto da Consolle Davis Vantage Pro 2
ed inviati alla rete mediante server Anemos WDS5 wview



Barcellona P.G. Centro more information Barcellona P.G. Centro


Golfo di Patti more information Golfo di Patti


Thunder radar more information blitzortung!


Rain radar  rain snow radar


altri nostri siti meteo:

Rischio IncendiRischio Incendi

Rete NOAA MADIS

Italia Meteo Network

PomeziameteoSito web di stazione meteo amica



Esiste un problema di comunicazione. Vai direttamente al : www.meteoalarm.eu e controllare il meteo-avvertimenti.

Report METAR

   
LICF - Messina, Italy
Distanza dalla stazione: NE 30 km
Dati ricevuti: 19-06-2021 00:55
Sereno  
Sereno  
   Vento: NNW 9.3 km/h
Vento: NNW 9.3 km/h
Temperatura: 24°C
P.to Rugiada: 11°C
Umidità: 44%
Barometro: 1017 hPa
Visibilità: oltre 10 km
dettagli cloud: Sereno
LICF 182255Z 34005KT CAVOK 24/11 Q1017 RMK SKC QUK / QUL / VIS MAR 25 KM MON INVIS NC VIS MIN 9999
LICR - Reggio Calabria, Italy
Distanza dalla stazione: SE 39 km
Dati ricevuti: 19-06-2021 00:50
Sereno  
Sereno  
   Vento: Nord 22.2 km/h
Vento: Nord 22.2 km/h
Temperatura: 23°C
P.to Rugiada: 18°C
Umidità: 74%
Barometro: 1018 hPa
Nuvole: Sereno
Visibilità: oltre 10 km
dettagli cloud: Sereno
LICR 182250Z AUTO 36012KT 9999 NCD 23/18 Q1018
LICC - Catania/Fontanar, Italy
Distanza dalla stazione: S 77 km
Dati ricevuti: 19-06-2021 00:50
Sereno  
Sereno  
   Vento: W 16.7 km/h
Vento: W 16.7 km/h
Temperatura: 23°C
P.to Rugiada: 16°C
Umidità: 65%
Barometro: 1017 hPa
Visibilità: oltre 10 km
dettagli cloud: Sereno
LICC 182250Z 25009KT CAVOK 23/16 Q1017
LICZ - Sigonella (nas), Italy
Distanza dalla stazione: S 89 km
Dati ricevuti: 19-06-2021 00:55
Sereno  
Sereno  
   Vento: West 9.3 km/h
Vento: West 9.3 km/h
Temperatura: 21°C
P.to Rugiada: 17°C
Umidità: 78%
Barometro: 1017 hPa
Visibilità: oltre 10 km
dettagli cloud: Sereno
LICZ 182255Z 27005KT CAVOK 21/17 Q1017 RMK SKC VIS MIN 9999 WIND THR28 26004KT WIND THR10 27005KT A3005 BLU
LICA - Lamezia Terme, Italy
Distanza dalla stazione: NE 122 km
Dati ricevuti: 19-06-2021 00:50
Molto nuvoloso  
Molto nuvoloso  
   Vento: Variabile 3.7 km/h
Vento: Variabile 3.7 km/h
Temperatura: 22°C
P.to Rugiada: 20°C
Umidità: 88%
Barometro: 1018 hPa
Nuvole: Molto nuvoloso
Visibilità: oltre 10 km
dettagli cloud: Molto nuvoloso 548.6 m
LICA 182250Z AUTO VRB02KT 9999 BKN018/// 22/20 Q1018
LICB - Comiso, Italy
Distanza dalla stazione: S 138 km
Dati ricevuti: 19-06-2021 00:50
Sereno  
Sereno  
   Vento: NE 3.7 km/h
Vento: NE 3.7 km/h
Temperatura: 19°C
P.to Rugiada: 14°C
Umidità: 73%
Barometro: 1019 hPa
Nuvole: Sereno
Visibilità: oltre 10 km
dettagli cloud: Sereno
LICB 182250Z AUTO 06002KT 9999 NCD 19/14 Q1019

Script sviluppato da  Saratoga-weather.org Adattato per il modello da  Weerstation Leuven

Potete trovare le nostre info meteo anche a:

European Weather Network

Weather Underground

AWEKAS

Citizen Weather Observer Program (CWOP)

HAMweather, WeatherForYou, PWS Weather

Attrezzature usate:

Stazione meteo
Davis VP2

Programma gestore dati meteo
WVIEW

Server per i dati meteo
WDS5 Ecoblack

Davis VP2

WVIEW

WDS5 Ecoblack